Time;durP1;ratioP1;P1;durP2;ratioP2;P2;SDS_P1;SDS_P2;PMS_P1;PMS_P2;Temp;Humidity;BMP_temperature;BMP_pressure;BME280_temperature;BME280_humidity;BME280_pressure;Samples;Min_cycle;Max_cycle;Signal;HPM_P1;HPM_P2
2022/06/30 00:00:50;;;;;;;18.70;13.83;;;22.40;99.90;;;;;;4401890;28;658415;-65
2022/06/30 00:03:37;;;;;;;20.80;14.63;;;22.40;99.90;;;;;;4414005;28;658060;-65
2022/06/30 00:06:26;;;;;;;18.30;13.37;;;22.30;99.90;;;;;;4409018;28;659214;-65
2022/06/30 00:09:13;;;;;;;17.53;13.80;;;22.30;99.90;;;;;;4385098;28;659206;-65
2022/06/30 00:12:00;;;;;;;18.98;14.10;;;22.30;99.90;;;;;;4387274;28;658895;-65
2022/06/30 00:14:47;;;;;;;23.27;14.57;;;22.20;99.90;;;;;;4414314;28;658585;-65
2022/06/30 00:17:35;;;;;;;19.77;14.00;;;22.30;99.90;;;;;;4409462;28;659351;-65
2022/06/30 00:20:22;;;;;;;18.60;14.23;;;22.20;99.90;;;;;;4390673;28;660269;-65
2022/06/30 00:23:10;;;;;;;23.00;14.50;;;22.30;99.90;;;;;;4405595;28;659508;-65
2022/06/30 00:25:59;;;;;;;22.03;13.90;;;22.20;99.90;;;;;;4389852;28;659803;-65
2022/06/30 00:28:46;;;;;;;22.43;14.33;;;22.20;99.90;;;;;;4389486;28;658946;-65
2022/06/30 00:31:34;;;;;;;20.90;13.90;;;22.20;99.90;;;;;;4407676;28;659143;-65
2022/06/30 00:34:21;;;;;;;17.83;14.97;;;22.30;99.90;;;;;;4390042;28;659949;-65
2022/06/30 00:37:08;;;;;;;18.93;14.33;;;22.20;99.90;;;;;;4411121;28;659366;-65
2022/06/30 00:39:56;;;;;;;21.57;14.63;;;22.30;99.90;;;;;;4391739;28;658564;-65
2022/06/30 00:42:43;;;;;;;20.37;14.87;;;22.30;99.90;;;;;;4408623;28;659909;-65
2022/06/30 00:45:31;;;;;;;19.63;14.63;;;22.20;99.90;;;;;;4386784;28;659002;-65
2022/06/30 00:48:18;;;;;;;24.23;14.80;;;22.20;99.90;;;;;;4412951;28;660111;-65
2022/06/30 00:51:06;;;;;;;18.50;14.80;;;22.20;99.90;;;;;;4386673;28;658425;-65
2022/06/30 00:53:53;;;;;;;20.17;14.70;;;22.10;99.90;;;;;;4410344;28;659773;-65
2022/06/30 00:56:43;;;;;;;20.37;14.70;;;22.10;99.90;;;;;;4391687;28;658524;-65
2022/06/30 00:59:30;;;;;;;20.77;15.13;;;22.10;99.90;;;;;;4389969;28;658925;-65
2022/06/30 01:02:17;;;;;;;24.63;15.73;;;22.10;99.90;;;;;;4412127;28;659105;-65
2022/06/30 01:05:05;;;;;;;20.73;15.13;;;22.10;99.90;;;;;;4407158;28;658819;-65
2022/06/30 01:07:52;;;;;;;25.40;15.50;;;22.00;99.90;;;;;;4390454;28;659843;-65
2022/06/30 01:13:45;;;;;;;18.03;14.77;;;22.00;99.90;;;;;;4385847;28;659718;-65
2022/06/30 01:16:32;;;;;;;23.10;14.90;;;21.90;99.90;;;;;;4386576;28;659045;-65
2022/06/30 01:19:19;;;;;;;20.33;15.50;;;21.90;99.90;;;;;;4412087;28;658239;-65
2022/06/30 01:22:08;;;;;;;20.17;15.17;;;21.90;99.90;;;;;;4389064;28;658828;-65
2022/06/30 01:24:55;;;;;;;20.30;15.97;;;21.80;99.90;;;;;;4389121;28;658780;-65
2022/06/30 01:27:42;;;;;;;20.60;15.43;;;21.80;99.90;;;;;;4412256;28;659072;-65
2022/06/30 01:30:30;;;;;;;20.17;15.07;;;21.70;99.90;;;;;;4407964;28;659461;-65
2022/06/30 01:33:17;;;;;;;20.17;15.87;;;21.60;99.90;;;;;;4384627;28;659609;-65
2022/06/30 01:36:04;;;;;;;20.87;16.47;;;21.60;99.90;;;;;;4404929;28;659325;-65
2022/06/30 01:38:53;;;;;;;20.53;16.33;;;21.60;99.90;;;;;;4386340;28;659204;-65
2022/06/30 01:41:40;;;;;;;22.73;16.23;;;21.50;99.90;;;;;;4399293;28;659026;-65
2022/06/30 01:44:27;;;;;;;19.73;16.27;;;21.40;99.90;;;;;;4411714;28;659153;-65
2022/06/30 01:47:14;;;;;;;22.73;17.27;;;21.40;99.90;;;;;;4406315;28;658885;-65
2022/06/30 01:50:01;;;;;;;24.17;16.93;;;21.40;99.90;;;;;;4388019;28;658534;-65
2022/06/30 01:52:49;;;;;;;22.20;16.83;;;21.40;99.90;;;;;;4408491;28;659224;-65
2022/06/30 01:55:37;;;;;;;23.80;17.00;;;21.30;99.90;;;;;;4388945;28;658818;-66
2022/06/30 01:58:25;;;;;;;19.73;16.30;;;21.30;99.90;;;;;;4408670;28;658926;-65
2022/06/30 02:01:12;;;;;;;24.13;16.80;;;21.30;99.90;;;;;;4411261;28;658646;-65
2022/06/30 02:04:46;;;;;;;23.70;16.50;;;21.20;99.90;;;;;;4407548;28;658932;-65
2022/06/30 02:07:07;;;;;;;20.00;16.07;;;21.20;99.90;;;;;;4362726;28;659565;-65
2022/06/30 02:09:54;;;;;;;21.50;16.90;;;21.10;99.90;;;;;;4406144;28;658789;-65
2022/06/30 02:12:48;;;;;;;23.70;16.83;;;21.00;99.90;;;;;;4388765;28;658364;-65
2022/06/30 02:15:36;;;;;;;21.17;16.37;;;20.90;99.90;;;;;;4363040;28;659390;-65
2022/06/30 02:18:23;;;;;;;22.50;17.23;;;20.80;99.90;;;;;;4409714;28;659133;-66
2022/06/30 02:21:10;;;;;;;26.70;17.90;;;20.80;99.90;;;;;;4383953;28;658906;-65
2022/06/30 02:23:57;;;;;;;24.40;17.07;;;20.80;99.90;;;;;;4407752;28;659464;-65
2022/06/30 02:26:45;;;;;;;20.60;16.57;;;20.70;99.90;;;;;;4407388;28;659481;-65
2022/06/30 02:29:34;;;;;;;22.03;17.07;;;20.60;99.90;;;;;;4410930;28;659113;-65
2022/06/30 02:32:21;;;;;;;23.20;17.57;;;20.60;99.90;;;;;;4382612;28;658663;-65
2022/06/30 02:35:09;;;;;;;21.47;17.23;;;20.50;99.90;;;;;;4404523;28;659142;-65
2022/06/30 02:37:57;;;;;;;24.03;16.77;;;20.50;99.90;;;;;;4383922;28;658838;-65
2022/06/30 02:40:44;;;;;;;21.40;17.00;;;20.50;99.90;;;;;;4408232;28;658375;-65
2022/06/30 02:43:31;;;;;;;23.40;17.87;;;20.40;99.90;;;;;;4388018;28;658531;-66
2022/06/30 02:46:20;;;;;;;22.43;17.40;;;20.30;99.90;;;;;;4408879;28;659384;-65
2022/06/30 02:49:07;;;;;;;22.47;17.33;;;20.40;99.90;;;;;;4380431;28;659250;-65
2022/06/30 02:51:54;;;;;;;20.23;16.87;;;20.30;99.90;;;;;;4409004;28;658682;-65
2022/06/30 02:54:41;;;;;;;24.57;17.40;;;20.30;1.00;;;;;;4385509;28;660359;-66
2022/06/30 02:57:28;;;;;;;22.70;18.63;;;20.20;1.00;;;;;;4412176;28;658087;-65
2022/06/30 03:00:16;;;;;;;21.83;18.37;;;20.20;1.00;;;;;;4387291;28;657702;-66
2022/06/30 03:03:04;;;;;;;21.90;18.27;;;20.30;1.00;;;;;;4409772;28;657680;-65
2022/06/30 03:05:51;;;;;;;24.40;19.67;;;20.20;1.00;;;;;;4378780;28;658030;-65
2022/06/30 03:08:39;;;;;;;23.47;18.10;;;20.20;1.00;;;;;;4407426;28;657629;-65
2022/06/30 03:11:26;;;;;;;24.30;19.27;;;20.20;1.00;;;;;;4388061;28;657888;-66
2022/06/30 03:14:13;;;;;;;26.13;19.00;;;20.20;1.00;;;;;;4410316;28;657838;-65
2022/06/30 03:17:03;;;;;;;26.42;18.45;;;20.10;30.20;;;;;;4396256;28;657513;-65
2022/06/30 03:19:51;;;;;;;25.83;20.13;;;20.10;99.90;;;;;;4394113;28;658906;-65
2022/06/30 03:22:39;;;;;;;25.67;19.33;;;20.20;99.90;;;;;;4408312;28;658998;-65
2022/06/30 03:25:26;;;;;;;25.77;19.57;;;20.20;99.90;;;;;;4389588;28;659424;-65
2022/06/30 03:28:13;;;;;;;24.63;19.47;;;20.30;98.90;;;;;;4412273;28;659114;-66
2022/06/30 03:31:00;;;;;;;24.63;19.20;;;20.20;24.70;;;;;;4391844;28;658879;-65
2022/06/30 03:33:47;;;;;;;29.27;20.33;;;20.30;16.70;;;;;;4412905;28;659370;-66
2022/06/30 03:36:36;;;;;;;23.60;19.13;;;20.40;1.00;;;;;;4407774;28;660091;-66
2022/06/30 03:39:23;;;;;;;29.23;19.27;;;20.40;1.00;;;;;;4385075;28;658383;-65
2022/06/30 03:42:10;;;;;;;24.30;18.90;;;20.50;1.00;;;;;;4394466;28;657478;-66
2022/06/30 03:44:57;;;;;;;25.57;18.33;;;20.50;1.00;;;;;;4414157;28;657317;-65
2022/06/30 03:47:44;;;;;;;29.83;20.23;;;20.50;1.00;;;;;;4409459;28;658365;-65
2022/06/30 03:50:31;;;;;;;30.10;21.73;;;20.60;1.00;;;;;;4385092;28;657765;-65
2022/06/30 03:53:20;;;;;;;28.90;21.07;;;20.80;90.60;;;;;;4406234;28;659028;-65
2022/06/30 03:56:07;;;;;;;29.60;21.33;;;21.00;1.00;;;;;;4383989;28;658871;-66
2022/06/30 03:58:54;;;;;;;25.30;20.47;;;21.10;1.00;;;;;;4415186;28;657637;-65
2022/06/30 04:01:41;;;;;;;29.58;20.42;;;21.20;99.90;;;;;;4394743;28;658381;-66
2022/06/30 04:04:28;;;;;;;25.80;20.17;;;21.40;1.00;;;;;;4410991;28;659494;-65
2022/06/30 04:07:15;;;;;;;29.77;20.57;;;21.50;99.90;;;;;;4391334;28;657693;-66
2022/06/30 04:10:05;;;;;;;29.27;21.07;;;21.60;1.00;;;;;;4408577;28;660436;-65
2022/06/30 04:12:52;;;;;;;25.87;20.03;;;21.70;1.00;;;;;;4385014;28;658473;-66
2022/06/30 04:15:39;;;;;;;31.90;20.93;;;21.80;99.90;;;;;;4411507;28;657550;-65
2022/06/30 04:18:26;;;;;;;25.83;20.27;;;22.00;1.00;;;;;;4390680;28;659094;-65
2022/06/30 04:21:16;;;;;;;26.87;19.77;;;22.10;99.90;;;;;;4405936;28;657921;-65
2022/06/30 04:24:04;;;;;;;23.87;19.10;;;22.20;99.90;;;;;;4392325;28;660111;-66
2022/06/30 04:26:52;;;;;;;27.70;18.90;;;22.30;99.90;;;;;;4392537;28;658493;-65
2022/06/30 04:29:39;;;;;;;26.40;19.30;;;22.40;99.90;;;;;;4410269;28;658656;-65
2022/06/30 04:32:37;;;;;;;28.93;19.40;;;22.40;99.90;;;;;;4392654;28;658782;-66
2022/06/30 04:35:25;;;;;;;25.33;19.50;;;22.40;99.90;;;;;;4391395;28;658567;-66
2022/06/30 04:38:12;;;;;;;22.70;18.43;;;22.40;99.90;;;;;;4415077;28;658718;-65
2022/06/30 04:44:06;;;;;;;25.30;19.33;;;22.40;99.90;;;;;;4384760;28;657967;-65
2022/06/30 04:46:53;;;;;;;25.07;18.97;;;22.40;99.90;;;;;;4381189;28;659065;-66
2022/06/30 04:49:40;;;;;;;25.40;19.40;;;22.50;99.90;;;;;;4396845;28;659070;-66
2022/06/30 04:52:27;;;;;;;22.53;19.67;;;22.40;99.90;;;;;;4415341;28;659241;-65
2022/06/30 04:55:14;;;;;;;25.27;19.07;;;22.60;1.00;;;;;;4410269;28;658864;-65
2022/06/30 04:58:01;;;;;;;23.63;19.20;;;22.50;1.00;;;;;;4385895;28;657677;-65
2022/06/30 05:00:50;;;;;;;31.33;20.47;;;22.40;99.90;;;;;;4410586;28;658823;-65
2022/06/30 05:03:37;;;;;;;29.10;20.27;;;22.60;99.90;;;;;;4388422;28;661891;-66
2022/06/30 05:06:24;;;;;;;25.00;19.77;;;22.60;99.90;;;;;;4404923;28;658760;-65
2022/06/30 05:09:11;;;;;;;28.03;20.00;;;22.80;99.90;;;;;;4387123;28;658603;-65
2022/06/30 05:11:58;;;;;;;28.73;20.57;;;23.00;99.90;;;;;;4408798;28;658758;-65
2022/06/30 05:14:45;;;;;;;29.20;19.60;;;23.00;99.90;;;;;;4391261;28;658605;-66
2022/06/30 05:17:35;;;;;;;25.65;18.90;;;23.10;99.90;;;;;;4409204;28;659166;-66
2022/06/30 05:20:22;;;;;;;27.67;20.47;;;23.30;99.90;;;;;;4384340;28;659666;-65
2022/06/30 05:23:09;;;;;;;27.00;20.07;;;23.30;99.90;;;;;;4409129;28;658824;-66
2022/06/30 05:29:01;;;;;;;26.95;19.55;;;23.60;99.90;;;;;;4358440;28;659661;-65
2022/06/30 05:31:48;;;;;;;25.25;18.95;;;23.60;99.90;;;;;;4406738;28;658538;-65
2022/06/30 05:34:37;;;;;;;26.00;19.35;;;23.60;99.90;;;;;;4390754;28;659039;-66
2022/06/30 05:37:24;;;;;;;26.80;18.52;;;23.50;99.90;;;;;;4406518;28;658896;-65
2022/06/30 05:40:12;;;;;;;25.70;19.92;;;23.60;99.90;;;;;;4386213;28;658656;-66
2022/06/30 05:42:59;;;;;;;26.30;18.87;;;23.60;99.90;;;;;;4409514;28;658195;-65
2022/06/30 05:45:46;;;;;;;27.08;20.42;;;23.70;99.90;;;;;;4387416;28;659133;-65
2022/06/30 05:48:33;;;;;;;24.30;18.80;;;23.70;99.90;;;;;;4408817;28;659289;-65
2022/06/30 05:51:22;;;;;;;26.88;18.80;;;23.90;99.90;;;;;;4376893;28;659658;-66
2022/06/30 05:54:09;;;;;;;34.40;21.02;;;23.80;99.90;;;;;;4409774;28;658702;-65
2022/06/30 05:56:56;;;;;;;26.40;19.35;;;24.10;99.90;;;;;;4388957;28;659298;-66
2022/06/30 05:59:43;;;;;;;23.10;19.25;;;24.30;99.90;;;;;;4408929;28;659276;-65
2022/06/30 06:02:30;;;;;;;27.17;18.92;;;24.20;99.90;;;;;;4388127;28;658733;-66
2022/06/30 06:05:18;;;;;;;28.27;19.42;;;24.40;99.90;;;;;;4406024;28;659919;-66
2022/06/30 06:08:08;;;;;;;25.60;18.63;;;24.60;99.90;;;;;;4400810;28;658865;-66
2022/06/30 06:10:55;;;;;;;24.58;19.05;;;24.70;99.90;;;;;;4395947;28;658643;-66
2022/06/30 06:13:43;;;;;;;23.42;17.73;;;24.70;99.90;;;;;;4409193;28;659995;-66
2022/06/30 06:16:30;;;;;;;22.33;16.92;;;24.70;99.90;;;;;;4402360;28;658398;-66
2022/06/30 06:19:17;;;;;;;25.90;17.00;;;24.90;99.90;;;;;;4411097;28;658993;-66
2022/06/30 06:22:05;;;;;;;21.27;16.67;;;25.30;99.90;;;;;;4403066;28;658964;-66
2022/06/30 06:24:53;;;;;;;20.58;16.05;;;25.50;99.90;;;;;;4386344;28;659776;-66
2022/06/30 06:27:41;;;;;;;21.20;14.85;;;25.30;99.90;;;;;;4389816;28;658824;-65
2022/06/30 06:30:29;;;;;;;22.38;16.25;;;25.30;99.90;;;;;;4406134;28;659126;-66
2022/06/30 06:33:16;;;;;;;20.52;15.32;;;25.50;99.90;;;;;;4387464;28;659386;-66
2022/06/30 06:36:03;;;;;;;19.92;14.25;;;25.90;99.90;;;;;;4405377;28;659100;-65
2022/06/30 06:38:51;;;;;;;22.50;15.93;;;26.10;99.90;;;;;;4389707;28;658667;-66
2022/06/30 06:41:39;;;;;;;22.90;16.75;;;26.00;99.90;;;;;;4408213;28;659972;-66
2022/06/30 06:44:26;;;;;;;23.60;14.50;;;25.80;99.90;;;;;;4387485;28;659338;-66
2022/06/30 06:47:14;;;;;;;20.13;16.35;;;25.80;99.90;;;;;;4406425;28;658584;-66
2022/06/30 06:50:01;;;;;;;20.20;15.43;;;25.90;99.90;;;;;;4387238;28;659080;-66
2022/06/30 06:52:48;;;;;;;28.45;16.33;;;26.50;99.90;;;;;;4401663;28;659087;-65
2022/06/30 06:55:36;;;;;;;25.80;16.40;;;26.60;99.90;;;;;;4389095;28;659164;-66
2022/06/30 06:58:24;;;;;;;25.42;17.23;;;26.70;99.90;;;;;;4405843;28;659299;-66
2022/06/30 07:01:11;;;;;;;21.73;16.92;;;26.80;99.90;;;;;;4388117;28;659054;-66
2022/06/30 07:03:58;;;;;;;31.35;17.63;;;26.40;99.90;;;;;;4408149;28;659177;-65
2022/06/30 07:06:48;;;;;;;24.00;16.52;;;26.60;99.90;;;;;;4387303;28;658422;-66
2022/06/30 07:09:35;;;;;;;22.23;16.05;;;26.90;99.90;;;;;;4387487;28;658725;-66
2022/06/30 07:12:22;;;;;;;24.60;16.80;;;26.50;99.90;;;;;;4408522;28;659271;-66
2022/06/30 07:15:11;;;;;;;20.33;16.45;;;26.50;99.90;;;;;;4403167;28;658564;-65
2022/06/30 07:17:58;;;;;;;20.23;16.27;;;26.70;99.90;;;;;;4384755;28;659356;-66
2022/06/30 07:20:46;;;;;;;27.48;16.27;;;27.00;99.90;;;;;;4383960;28;659493;-66
2022/06/30 07:23:33;;;;;;;19.65;16.13;;;27.10;99.90;;;;;;4410259;28;659399;-66
2022/06/30 07:26:21;;;;;;;28.75;16.55;;;27.20;99.90;;;;;;4396882;28;658573;-66
2022/06/30 07:29:08;;;;;;;19.75;14.93;;;26.90;99.90;;;;;;4392098;28;659522;-66
2022/06/30 07:31:57;;;;;;;21.02;15.43;;;27.20;99.90;;;;;;4386463;28;659762;-66
2022/06/30 07:34:45;;;;;;;18.73;14.52;;;27.20;99.90;;;;;;4402851;28;658885;-67
2022/06/30 07:37:33;;;;;;;21.23;15.80;;;27.50;99.90;;;;;;4411256;28;658006;-66
2022/06/30 07:40:20;;;;;;;18.50;14.43;;;27.60;99.90;;;;;;4398687;28;659452;-66
2022/06/30 07:43:07;;;;;;;18.15;14.82;;;27.90;99.90;;;;;;4412814;28;659469;-66
2022/06/30 07:45:54;;;;;;;21.10;15.32;;;28.00;99.90;;;;;;4412061;28;658073;-66
2022/06/30 07:48:43;;;;;;;21.08;14.70;;;28.00;99.90;;;;;;4392549;28;658457;-66
2022/06/30 07:51:30;;;;;;;19.20;14.85;;;28.10;99.90;;;;;;4391707;28;659370;-66
2022/06/30 07:54:17;;;;;;;21.00;13.83;;;27.80;99.90;;;;;;4413517;28;659151;-66
2022/06/30 07:57:05;;;;;;;15.50;13.52;;;27.90;99.90;;;;;;4409418;28;658719;-67
2022/06/30 07:59:52;;;;;;;19.25;13.90;;;27.90;99.90;;;;;;4389667;28;659586;-67
2022/06/30 08:02:39;;;;;;;21.90;14.02;;;28.80;99.90;;;;;;4409583;28;658710;-67
2022/06/30 08:05:28;;;;;;;16.37;12.97;;;28.90;99.90;;;;;;4384479;28;659806;-67
2022/06/30 08:08:15;;;;;;;19.88;13.05;;;28.70;99.90;;;;;;4393762;28;658859;-67
2022/06/30 08:11:02;;;;;;;14.98;12.77;;;28.70;99.90;;;;;;4414345;28;659705;-67
2022/06/30 08:13:49;;;;;;;16.88;13.18;;;28.50;99.90;;;;;;4408618;28;658548;-67
2022/06/30 08:16:36;;;;;;;20.85;12.07;;;28.50;99.90;;;;;;4387602;28;658188;-67
2022/06/30 08:19:23;;;;;;;16.67;11.40;;;29.20;99.90;;;;;;4408372;28;659133;-67
2022/06/30 08:22:12;;;;;;;14.68;11.43;;;29.40;97.90;;;;;;4389308;28;659074;-67
2022/06/30 08:24:59;;;;;;;17.20;11.43;;;29.20;97.30;;;;;;4405382;28;658909;-67
2022/06/30 08:27:46;;;;;;;13.97;11.33;;;29.70;94.20;;;;;;4389044;28;659568;-67
2022/06/30 08:30:33;;;;;;;25.70;11.35;;;29.90;95.60;;;;;;4411000;28;659246;-67
2022/06/30 08:33:22;;;;;;;13.23;10.43;;;30.20;96.10;;;;;;4390993;28;659022;-67
2022/06/30 08:36:09;;;;;;;14.55;10.82;;;30.40;91.30;;;;;;4409359;28;658712;-67
2022/06/30 08:38:57;;;;;;;14.68;10.18;;;29.90;93.50;;;;;;4387360;28;658804;-67
2022/06/30 08:45:13;;;;;;;15.83;9.83;;;30.50;84.60;;;;;;4385283;28;658122;-67
2022/06/30 08:47:57;;;;;;;13.73;9.18;;;30.70;86.10;;;;;;4359407;28;657527;-68
2022/06/30 08:50:44;;;;;;;19.58;9.65;;;31.10;80.00;;;;;;4405419;28;657701;-67
2022/06/30 08:53:33;;;;;;;11.33;8.43;;;31.00;83.70;;;;;;4386497;28;658700;-67
2022/06/30 08:56:22;;;;;;;15.23;8.45;;;31.30;73.60;;;;;;4393396;28;658007;-67
2022/06/30 08:59:09;;;;;;;11.90;8.27;;;30.60;72.90;;;;;;4408695;28;657747;-67
2022/06/30 09:01:56;;;;;;;10.88;7.47;;;30.30;72.80;;;;;;4389600;28;657719;-67
2022/06/30 09:04:43;;;;;;;14.30;7.68;;;30.70;71.00;;;;;;4410191;28;658626;-67
2022/06/30 09:07:31;;;;;;;18.02;7.00;;;30.60;64.40;;;;;;4393787;28;657908;-67
2022/06/30 09:10:18;;;;;;;12.23;7.05;;;31.10;64.40;;;;;;4407943;28;657595;-68
2022/06/30 09:13:07;;;;;;;10.98;7.35;;;31.90;61.00;;;;;;4388263;28;658204;-67
2022/06/30 09:15:54;;;;;;;17.33;7.47;;;32.00;64.30;;;;;;4406621;28;657666;-67
2022/06/30 09:18:41;;;;;;;7.35;6.38;;;31.30;64.50;;;;;;4388858;28;658910;-67
2022/06/30 09:21:28;;;;;;;15.70;7.18;;;31.20;63.40;;;;;;4407172;28;657477;-67
2022/06/30 09:24:22;;;;;;;10.40;7.03;;;31.40;62.50;;;;;;4386951;28;657596;-67
2022/06/30 09:27:15;;;;;;;15.37;6.67;;;31.90;63.40;;;;;;4384671;28;657886;-67
2022/06/30 09:30:07;;;;;;;9.88;6.68;;;31.90;63.50;;;;;;4388379;28;658029;-67
2022/06/30 09:32:55;;;;;;;10.07;6.67;;;31.20;63.10;;;;;;4393771;28;657258;-67
2022/06/30 09:35:42;;;;;;;5.67;5.17;;;32.20;61.20;;;;;;4386092;28;657862;-67
2022/06/30 09:38:30;;;;;;;15.95;5.80;;;33.10;60.00;;;;;;4412514;28;656638;-67
2022/06/30 09:41:27;;;;;;;8.48;5.93;;;32.90;57.30;;;;;;4410792;28;659363;-67
2022/06/30 09:44:21;;;;;;;18.00;6.22;;;32.80;57.60;;;;;;4388427;28;656706;-67
2022/06/30 09:47:13;;;;;;;8.10;5.47;;;33.30;57.50;;;;;;4389393;28;657862;-67
2022/06/30 09:50:04;;;;;;;10.25;6.40;;;33.20;62.60;;;;;;4372810;28;656836;-67
2022/06/30 09:53:11;;;;;;;7.88;5.85;;;33.50;57.30;;;;;;4396773;28;657455;-67
2022/06/30 09:56:10;;;;;;;9.67;6.13;;;32.90;58.00;;;;;;4386235;28;657057;-67
2022/06/30 09:58:57;;;;;;;11.13;5.63;;;33.20;56.30;;;;;;4361966;28;656638;-67
2022/06/30 10:01:51;;;;;;;8.23;5.18;;;33.30;56.30;;;;;;4410978;28;657560;-67
2022/06/30 10:04:54;;;;;;;14.15;5.82;;;33.80;56.10;;;;;;4384667;28;657011;-67
2022/06/30 10:07:42;;;;;;;14.90;5.90;;;33.40;53.90;;;;;;4395145;28;658816;-67
2022/06/30 10:10:29;;;;;;;10.88;5.68;;;33.50;54.60;;;;;;4410446;28;657740;-67
2022/06/30 10:13:17;;;;;;;10.50;6.30;;;33.50;52.40;;;;;;4393040;28;658719;-67
2022/06/30 10:16:06;;;;;;;11.18;6.00;;;33.50;54.50;;;;;;4405138;28;657981;-67
2022/06/30 10:18:53;;;;;;;11.90;5.70;;;33.70;54.80;;;;;;4404756;28;658911;-67
2022/06/30 10:21:42;;;;;;;14.40;5.68;;;33.70;53.30;;;;;;4392132;28;658895;-68
2022/06/30 10:24:30;;;;;;;12.85;5.18;;;33.80;53.10;;;;;;4405110;28;657781;-67
2022/06/30 10:27:18;;;;;;;12.00;5.40;;;33.90;49.70;;;;;;4408963;28;658636;-67
2022/06/30 10:30:09;;;;;;;6.53;5.07;;;34.00;50.80;;;;;;4384687;28;657183;-67
2022/06/30 10:32:59;;;;;;;11.07;6.28;;;34.50;50.80;;;;;;4374526;28;656411;-67
2022/06/30 10:35:47;;;;;;;14.88;6.45;;;34.40;52.60;;;;;;4377419;28;657936;-67
2022/06/30 10:38:38;;;;;;;10.15;5.63;;;34.70;50.80;;;;;;4389516;28;657853;-67
2022/06/30 10:41:25;;;;;;;10.30;4.88;;;34.80;48.10;;;;;;4366468;28;657337;-67
2022/06/30 10:44:15;;;;;;;11.45;4.78;;;35.20;47.60;;;;;;4398200;28;658634;-67
2022/06/30 10:47:09;;;;;;;8.95;4.50;;;35.10;48.60;;;;;;4391432;28;659369;-67
2022/06/30 10:49:57;;;;;;;7.25;4.10;;;35.00;47.90;;;;;;4372766;28;657027;-67
2022/06/30 10:52:44;;;;;;;12.60;4.50;;;35.70;46.40;;;;;;4381905;28;656012;-67
2022/06/30 10:55:44;;;;;;;10.60;4.88;;;35.60;48.50;;;;;;4380817;28;657477;-67
2022/06/30 10:58:31;;;;;;;7.40;4.55;;;35.00;46.20;;;;;;4368413;28;657498;-67
2022/06/30 11:01:18;;;;;;;7.50;3.80;;;35.50;45.80;;;;;;4391918;28;656659;-67
2022/06/30 11:04:05;;;;;;;7.57;4.00;;;36.30;42.70;;;;;;4371921;28;656653;-67
2022/06/30 11:07:01;;;;;;;13.95;4.63;;;35.60;43.70;;;;;;4401699;28;657589;-66
2022/06/30 11:10:19;;;;;;;12.75;4.22;;;35.30;46.60;;;;;;4369744;28;658275;-67
2022/06/30 11:13:10;;;;;;;8.10;4.20;;;34.90;47.20;;;;;;4379501;28;657654;-67
2022/06/30 11:15:58;;;;;;;10.27;4.03;;;34.90;43.10;;;;;;4380625;28;657938;-67
2022/06/30 11:18:45;;;;;;;5.80;3.85;;;35.40;46.40;;;;;;4387282;28;658985;-67
2022/06/30 11:21:32;;;;;;;7.97;3.70;;;35.60;41.00;;;;;;4397964;28;658045;-67
2022/06/30 11:24:23;;;;;;;4.40;3.65;;;35.50;39.20;;;;;;4391502;28;656653;-67
2022/06/30 11:27:19;;;;;;;9.98;3.60;;;34.70;40.40;;;;;;4363243;28;656868;-67
2022/06/30 11:30:08;;;;;;;5.88;3.40;;;35.50;41.00;;;;;;4357069;28;656699;-67
2022/06/30 11:32:55;;;;;;;5.78;3.38;;;35.60;42.20;;;;;;4394867;28;656622;-66
2022/06/30 11:35:43;;;;;;;13.13;3.40;;;35.40;43.40;;;;;;4409557;28;656727;-66
2022/06/30 11:38:31;;;;;;;8.65;3.88;;;36.00;41.50;;;;;;4388673;28;657786;-67
2022/06/30 11:44:29;;;;;;;8.27;3.47;;;36.10;39.80;;;;;;4355545;28;656658;-66
2022/06/30 11:47:18;;;;;;;13.45;3.60;;;36.70;39.10;;;;;;4386010;28;656837;-67
2022/06/30 11:50:06;;;;;;;7.22;4.00;;;36.80;43.10;;;;;;4382393;28;657500;-67
2022/06/30 11:52:54;;;;;;;8.00;3.60;;;36.30;39.40;;;;;;4401978;28;657727;-67
2022/06/30 11:55:42;;;;;;;10.48;4.72;;;37.00;39.20;;;;;;4387282;28;657576;-65
2022/06/30 11:58:29;;;;;;;11.15;6.63;;;37.50;40.00;;;;;;4395137;28;657632;-64
2022/06/30 12:01:17;;;;;;;7.13;4.50;;;36.60;41.30;;;;;;4378275;28;657906;-65
2022/06/30 12:04:14;;;;;;;6.00;4.28;;;37.20;40.60;;;;;;4401136;28;656710;-64
2022/06/30 12:07:03;;;;;;;5.88;3.95;;;37.00;40.30;;;;;;4388718;28;657159;-64
2022/06/30 12:09:51;;;;;;;4.80;4.30;;;36.90;39.30;;;;;;4395571;28;656622;-64
2022/06/30 12:12:38;;;;;;;12.88;4.15;;;36.80;39.70;;;;;;4399295;28;657606;-65
2022/06/30 12:15:25;;;;;;;6.88;4.53;;;36.30;39.50;;;;;;4388959;28;657353;-65
2022/06/30 12:18:12;;;;;;;8.93;4.27;;;36.40;40.60;;;;;;4414595;28;657504;-65
2022/06/30 12:21:01;;;;;;;6.47;3.92;;;36.60;40.10;;;;;;4408905;28;657300;-65
2022/06/30 12:23:48;;;;;;;8.18;4.28;;;36.50;39.70;;;;;;4393597;28;656951;-64
2022/06/30 12:26:35;;;;;;;11.63;4.20;;;36.10;41.00;;;;;;4395381;28;656537;-64
2022/06/30 12:29:23;;;;;;;7.13;4.22;;;36.50;42.90;;;;;;4400444;28;658904;-65
2022/06/30 12:32:11;;;;;;;6.53;4.43;;;37.00;39.60;;;;;;4386259;28;656646;-65
2022/06/30 12:34:59;;;;;;;11.20;4.90;;;37.10;40.10;;;;;;4416597;28;657368;-65
2022/06/30 12:37:47;;;;;;;8.98;4.55;;;37.20;38.90;;;;;;4374202;28;657366;-64
2022/06/30 12:40:38;;;;;;;7.07;4.65;;;37.20;37.90;;;;;;4408600;28;656288;-64
2022/06/30 12:43:25;;;;;;;9.98;3.83;;;36.90;38.80;;;;;;4381076;28;656412;-65
2022/06/30 12:46:12;;;;;;;7.23;4.20;;;37.00;38.30;;;;;;4413284;28;657855;-64
2022/06/30 12:49:00;;;;;;;8.52;4.05;;;37.00;38.70;;;;;;4405938;28;656729;-64
2022/06/30 12:51:47;;;;;;;8.93;4.17;;;36.10;38.00;;;;;;4408823;28;657423;-64
2022/06/30 12:54:36;;;;;;;10.43;4.95;;;36.80;39.90;;;;;;4413559;28;656784;-64
2022/06/30 12:57:25;;;;;;;10.35;4.68;;;37.00;43.60;;;;;;4388221;28;658400;-65
2022/06/30 13:00:13;;;;;;;8.88;4.53;;;36.70;40.30;;;;;;4378767;28;658322;-65
2022/06/30 13:03:00;;;;;;;8.85;5.30;;;36.60;40.10;;;;;;4392594;28;656613;-64
2022/06/30 13:05:47;;;;;;;7.13;5.37;;;36.70;41.40;;;;;;4414161;28;656965;-65
2022/06/30 13:08:34;;;;;;;12.48;5.18;;;37.90;39.40;;;;;;4407806;28;656726;-64
2022/06/30 13:11:25;;;;;;;11.70;4.82;;;38.10;36.00;;;;;;4388677;28;657824;-65
2022/06/30 13:14:12;;;;;;;8.15;5.10;;;37.70;39.10;;;;;;4383242;28;658656;-64
2022/06/30 13:17:00;;;;;;;11.48;5.10;;;36.80;39.00;;;;;;4415224;28;656316;-64
2022/06/30 13:19:47;;;;;;;10.00;4.60;;;36.80;40.00;;;;;;4387849;28;658597;-65
2022/06/30 13:22:35;;;;;;;9.27;5.30;;;36.10;40.00;;;;;;4408943;28;658300;-64
2022/06/30 13:25:22;;;;;;;8.80;4.90;;;35.80;39.80;;;;;;4409921;28;657905;-64
2022/06/30 13:28:11;;;;;;;11.98;4.82;;;35.30;41.70;;;;;;4410401;28;656435;-64
2022/06/30 13:30:59;;;;;;;16.30;5.13;;;35.20;41.10;;;;;;4410673;28;657526;-64
2022/06/30 13:33:47;;;;;;;9.10;4.70;;;34.60;41.70;;;;;;4389124;28;658944;-64
2022/06/30 13:36:34;;;;;;;6.13;4.47;;;34.40;41.70;;;;;;4407903;28;656676;-64
2022/06/30 13:39:21;;;;;;;12.85;5.07;;;34.70;42.30;;;;;;4390741;28;656698;-64
2022/06/30 13:42:08;;;;;;;15.87;5.40;;;34.60;42.30;;;;;;4409116;28;658020;-64
2022/06/30 13:44:57;;;;;;;9.95;5.22;;;33.80;43.40;;;;;;4390766;28;658704;-64
2022/06/30 13:47:45;;;;;;;8.00;5.15;;;33.80;44.80;;;;;;4396823;28;656814;-64
2022/06/30 13:50:32;;;;;;;10.68;5.45;;;33.40;44.30;;;;;;4414995;28;658182;-66
2022/06/30 13:53:19;;;;;;;7.32;5.45;;;33.30;45.30;;;;;;4410216;28;657505;-66
2022/06/30 13:56:07;;;;;;;8.93;5.38;;;33.40;46.30;;;;;;4388490;28;656750;-66
2022/06/30 13:58:54;;;;;;;11.57;5.50;;;33.00;46.10;;;;;;4410504;28;656443;-66
2022/06/30 14:01:42;;;;;;;10.25;5.85;;;32.90;47.00;;;;;;4390185;28;657218;-66
2022/06/30 14:04:29;;;;;;;10.10;5.57;;;32.80;48.20;;;;;;4410381;28;657299;-66
2022/06/30 14:07:16;;;;;;;9.15;5.90;;;32.80;49.30;;;;;;4388542;28;658242;-66
2022/06/30 14:10:04;;;;;;;13.50;6.20;;;32.40;49.70;;;;;;4406995;28;656796;-66
2022/06/30 14:12:51;;;;;;;7.72;5.78;;;32.30;50.70;;;;;;4391684;28;657611;-66
2022/06/30 14:15:38;;;;;;;11.93;5.95;;;32.00;52.20;;;;;;4415017;28;657771;-66
2022/06/30 14:18:26;;;;;;;10.38;6.50;;;31.90;53.50;;;;;;4386512;28;658147;-66
2022/06/30 14:21:14;;;;;;;9.88;6.35;;;31.80;54.60;;;;;;4409593;28;658534;-66
2022/06/30 14:24:01;;;;;;;9.03;6.13;;;31.60;55.40;;;;;;4383602;28;657660;-66